Sidman, Pennsylvania
Current Conditions -  °F | °C
As of 8:54 PM on Wednesday 22 Oct 2014 (Local Time) from KJST Reporting Station
Overcast Overcast  
Wind Chill: 35°   Ceiling: 800
Heat Index: 42°   Visibility: 10mi
Dew Point: 38°   Wind: 14mph
Humidity: 85%   Direction: 330°NNW
Pressure: 30.1"   Gusts: 25mph
Location:  40.33°N, 78.74°W
Report Text: KJST 230054Z AUTO 33012G22KT 10SM OVC008 06/03 A3010 RMK AO2 SLP205 T00560033
Loading
Personal Weather Stations






























Interactive Weather Map
Tropical Storm Tracking
New forecast layout! Learn more

10-Day Weather Forecast

Advertisements
Track Severe Weather on mobile